LKZB weather

Zbraslavice Airport
Zbraslavice, Central Bohemian Region, Czech Republic

Public forecast

Using degrees Celsius for public forecast. Weather courtesy of forecast.io.

Closest aviation weather report (METAR) to Zbraslavice Airport

Closest report is Čáslav Air Base, 10.3 nm (19.0 km) NE. Retrieved 2019/12/15 12:00 UTC (50 minutes ago):

LKCV 151200Z 21014KT CAVOK 13/06 Q1004 NOSIG RMK BLU BLU

Closest aviation forecast (TAF) to Zbraslavice Airport

Closest forecast is Čáslav Air Base, 10.3 nm (19.0 km) NE. Retrieved 2019/12/15 12:06 UTC (44 minutes ago):

TAF LKCV 151100Z 1512/1612 22012KT 9999 BKN035 TEMPO 1512/1606 8000 -RA BKN020 BECMG 1514/1516 27008KT BECMG 1516/1518 18005KT BECMG 1605/1607 13008KT CAVOK